Pagrindinis puslapis
METAR-TAF:

METAR-TAF

Oro uostai :

Honiara, Gvadalkanalis, Saliamono Salos

platuma: 09-25S, ilguma: 160-03E, Aukštis: 8 m

Dabartinis oras

Ataskaita buvo paskelbta 36 minutes, ne 02:00 UTC
Vėjas 9 kt iš Šiaurės Rytų
Temperatūra 32°C
Drėgmė 67%
Slėgis 1011 hPa
Matomumas 10 km arba daugiau
Išsisklaidę debesys ne aukštis 2000 ft
Mažai debesys ne aukštis 2100 ft, Liūtiniai kamuoliniai debesys.

METAR: AGGH 170200Z 05009KT 9999 SCT020 FEW021CB 32/25 Q1011

Laikas: 13:36 (02:36 UTC)

Prognozė

Ataskaita buvo paskelbta 3 valandos ir 26 minutes, ne 23:10 UTC
Prognozė galioja nuo 17 metu 00 UTC su 17 metu 24 UTC
Vėjas 12 kt iš Rytų/Šiaurės Rytų
Matomumas: 1012 m
Išsisklaidę debesys ne aukštis 1900 ft

TAF: AGGH 162310Z 1700/1724 07012KT 9999 SCT019 T 31 32 30 25 Q 1013 1011 1010 1012

Orai ataskaitas ir orų prognozės (METAR, TAF).

turimą stotys yra geltonos ir raudonos taškus žemėlapyje.

Perkelti pele per norėdami pamatyti stoties vardą.

Tada spustelėkite, norėdami matyti oro stebėjimo ir prognozės.

Norėdami pakeisti žemėlapį: spustelėkite ant žalios mygtukų su juodo kryžiaus žemyn,; žalią mygtuką su brūkšneliu, jei norite nutolinti; arba žalių rodyklių gretimoms žemėlapius.


METAR-TAF: